Granville Center, Massachusetts
Current Conditions -  °F | °C
As of 11:53 AM on Saturday 20 Dec 2014 (Local Time) from KBAF Reporting Station
Overcast Overcast  
Wind Chill: 25°   Ceiling: 2800
Heat Index: 30°   Visibility: 10mi
Dew Point: 18°   Wind: 5mph
Humidity: 61%   Direction: 360°N
Pressure: 30.27"   Gusts: NA
Location:  42.0855°N, 72.9568°W
Report Text: KBAF 201653Z 36004KT 10SM OVC028 M01/M08 A3027 RMK AO2 SLP258 T10111078
Loading
Personal Weather Stations






























Interactive Weather Map New forecast layout! Learn more

10-Day Weather Forecast

Advertisements
Track Severe Weather on mobile